sensor_id;sensor_type;location;lat;lon;timestamp;P1;durP1;ratioP1;P2;durP2;ratioP2
11767;SDS011;5941;57.652;12.514;2022-12-20T00:01:39;0.83;;;0.83;;
11767;SDS011;5941;57.652;12.514;2022-12-20T00:04:05;0.77;;;0.77;;
11767;SDS011;5941;57.652;12.514;2022-12-20T00:06:32;1.30;;;0.87;;
11767;SDS011;5941;57.652;12.514;2022-12-20T00:08:59;1.27;;;0.70;;
11767;SDS011;5941;57.652;12.514;2022-12-20T00:11:26;0.60;;;0.60;;
11767;SDS011;5941;57.652;12.514;2022-12-20T00:13:52;0.60;;;0.60;;
11767;SDS011;5941;57.652;12.514;2022-12-20T00:16:19;0.70;;;0.70;;
11767;SDS011;5941;57.652;12.514;2022-12-20T00:18:46;0.60;;;0.60;;
11767;SDS011;5941;57.652;12.514;2022-12-20T00:21:15;0.50;;;0.50;;
11767;SDS011;5941;57.652;12.514;2022-12-20T00:23:41;0.57;;;0.50;;
11767;SDS011;5941;57.652;12.514;2022-12-20T00:28:33;0.80;;;0.80;;
11767;SDS011;5941;57.652;12.514;2022-12-20T00:31:00;0.50;;;0.50;;
11767;SDS011;5941;57.652;12.514;2022-12-20T00:33:26;0.70;;;0.70;;
11767;SDS011;5941;57.652;12.514;2022-12-20T00:35:53;0.60;;;0.60;;
11767;SDS011;5941;57.652;12.514;2022-12-20T00:38:19;0.70;;;0.70;;
11767;SDS011;5941;57.652;12.514;2022-12-20T00:40:45;1.53;;;0.70;;
11767;SDS011;5941;57.652;12.514;2022-12-20T00:43:11;0.60;;;0.60;;
11767;SDS011;5941;57.652;12.514;2022-12-20T00:45:37;0.70;;;0.70;;
11767;SDS011;5941;57.652;12.514;2022-12-20T00:48:03;0.50;;;0.50;;
11767;SDS011;5941;57.652;12.514;2022-12-20T00:50:29;0.70;;;0.70;;
11767;SDS011;5941;57.652;12.514;2022-12-20T00:52:55;0.50;;;0.50;;
11767;SDS011;5941;57.652;12.514;2022-12-20T00:55:21;0.40;;;0.40;;
11767;SDS011;5941;57.652;12.514;2022-12-20T00:57:47;0.50;;;0.50;;
11767;SDS011;5941;57.652;12.514;2022-12-20T01:00:13;0.67;;;0.60;;
11767;SDS011;5941;57.652;12.514;2022-12-20T01:02:39;2.60;;;0.70;;
11767;SDS011;5941;57.652;12.514;2022-12-20T01:05:05;1.83;;;0.60;;
11767;SDS011;5941;57.652;12.514;2022-12-20T01:07:31;1.13;;;0.50;;
11767;SDS011;5941;57.652;12.514;2022-12-20T01:09:57;23.20;;;1.20;;
11767;SDS011;5941;57.652;12.514;2022-12-20T01:12:23;0.40;;;0.40;;
11767;SDS011;5941;57.652;12.514;2022-12-20T01:14:49;0.50;;;0.50;;
11767;SDS011;5941;57.652;12.514;2022-12-20T01:17:15;0.60;;;0.60;;
11767;SDS011;5941;57.652;12.514;2022-12-20T01:19:41;0.50;;;0.50;;
11767;SDS011;5941;57.652;12.514;2022-12-20T01:22:07;0.60;;;0.60;;
11767;SDS011;5941;57.652;12.514;2022-12-20T01:24:33;0.60;;;0.60;;
11767;SDS011;5941;57.652;12.514;2022-12-20T01:26:59;0.60;;;0.60;;
11767;SDS011;5941;57.652;12.514;2022-12-20T01:29:25;0.70;;;0.60;;
11767;SDS011;5941;57.652;12.514;2022-12-20T01:31:51;0.50;;;0.50;;
11767;SDS011;5941;57.652;12.514;2022-12-20T01:34:18;2.10;;;0.60;;
11767;SDS011;5941;57.652;12.514;2022-12-20T01:36:44;0.40;;;0.40;;
11767;SDS011;5941;57.652;12.514;2022-12-20T01:39:11;13.43;;;0.90;;
11767;SDS011;5941;57.652;12.514;2022-12-20T01:41:38;0.37;;;0.37;;
11767;SDS011;5941;57.652;12.514;2022-12-20T01:44:05;0.50;;;0.50;;
11767;SDS011;5941;57.652;12.514;2022-12-20T01:46:32;0.50;;;0.50;;
11767;SDS011;5941;57.652;12.514;2022-12-20T01:49:00;0.57;;;0.57;;
11767;SDS011;5941;57.652;12.514;2022-12-20T01:51:28;0.60;;;0.60;;
11767;SDS011;5941;57.652;12.514;2022-12-20T01:53:57;0.53;;;0.53;;
11767;SDS011;5941;57.652;12.514;2022-12-20T01:56:25;0.40;;;0.40;;
11767;SDS011;5941;57.652;12.514;2022-12-20T01:58:51;1.17;;;0.60;;
11767;SDS011;5941;57.652;12.514;2022-12-20T02:01:19;14.30;;;1.00;;
11767;SDS011;5941;57.652;12.514;2022-12-20T02:03:46;30.07;;;1.40;;
11767;SDS011;5941;57.652;12.514;2022-12-20T02:06:13;4.33;;;0.57;;
11767;SDS011;5941;57.652;12.514;2022-12-20T02:08:40;0.50;;;0.50;;
11767;SDS011;5941;57.652;12.514;2022-12-20T02:16:20;62.77;;;2.47;;
11767;SDS011;5941;57.652;12.514;2022-12-20T02:18:51;0.43;;;0.43;;
11767;SDS011;5941;57.652;12.514;2022-12-20T02:29:36;30.27;;;1.93;;
11767;SDS011;5941;57.652;12.514;2022-12-20T02:34:40;3.47;;;0.60;;
11767;SDS011;5941;57.652;12.514;2022-12-20T02:37:06;2.03;;;0.53;;
11767;SDS011;5941;57.652;12.514;2022-12-20T02:39:32;0.30;;;0.30;;
11767;SDS011;5941;57.652;12.514;2022-12-20T02:42:03;2.10;;;0.67;;
11767;SDS011;5941;57.652;12.514;2022-12-20T02:44:31;131.43;;;5.23;;
11767;SDS011;5941;57.652;12.514;2022-12-20T02:47:18;10.80;;;0.80;;
11767;SDS011;5941;57.652;12.514;2022-12-20T02:49:45;0.40;;;0.40;;
11767;SDS011;5941;57.652;12.514;2022-12-20T02:52:12;6.60;;;0.80;;
11767;SDS011;5941;57.652;12.514;2022-12-20T02:54:38;60.03;;;2.47;;
11767;SDS011;5941;57.652;12.514;2022-12-20T02:57:07;0.40;;;0.40;;
11767;SDS011;5941;57.652;12.514;2022-12-20T02:59:40;0.30;;;0.30;;
11767;SDS011;5941;57.652;12.514;2022-12-20T03:02:08;17.10;;;1.03;;
11767;SDS011;5941;57.652;12.514;2022-12-20T03:04:35;24.50;;;1.00;;
11767;SDS011;5941;57.652;12.514;2022-12-20T03:09:32;0.63;;;0.50;;
11767;SDS011;5941;57.652;12.514;2022-12-20T03:11:58;0.50;;;0.40;;
11767;SDS011;5941;57.652;12.514;2022-12-20T03:14:24;0.43;;;0.43;;
11767;SDS011;5941;57.652;12.514;2022-12-20T03:16:51;0.50;;;0.50;;
11767;SDS011;5941;57.652;12.514;2022-12-20T03:19:17;0.50;;;0.50;;
11767;SDS011;5941;57.652;12.514;2022-12-20T03:21:43;0.50;;;0.50;;
11767;SDS011;5941;57.652;12.514;2022-12-20T03:24:09;5.57;;;0.63;;
11767;SDS011;5941;57.652;12.514;2022-12-20T03:26:38;0.40;;;0.40;;
11767;SDS011;5941;57.652;12.514;2022-12-20T03:29:04;79.57;;;2.97;;
11767;SDS011;5941;57.652;12.514;2022-12-20T03:31:30;0.40;;;0.40;;
11767;SDS011;5941;57.652;12.514;2022-12-20T03:33:56;7.80;;;0.60;;
11767;SDS011;5941;57.652;12.514;2022-12-20T03:36:22;76.17;;;3.00;;
11767;SDS011;5941;57.652;12.514;2022-12-20T03:38:49;0.60;;;0.60;;
11767;SDS011;5941;57.652;12.514;2022-12-20T03:41:15;3.57;;;0.50;;
11767;SDS011;5941;57.652;12.514;2022-12-20T03:43:41;0.60;;;0.60;;
11767;SDS011;5941;57.652;12.514;2022-12-20T03:46:07;0.40;;;0.40;;
11767;SDS011;5941;57.652;12.514;2022-12-20T03:48:33;0.67;;;0.67;;
11767;SDS011;5941;57.652;12.514;2022-12-20T03:50:59;1.20;;;0.50;;
11767;SDS011;5941;57.652;12.514;2022-12-20T03:53:25;49.83;;;2.67;;
11767;SDS011;5941;57.652;12.514;2022-12-20T03:55:51;4.13;;;0.60;;
11767;SDS011;5941;57.652;12.514;2022-12-20T03:58:17;0.73;;;0.73;;
11767;SDS011;5941;57.652;12.514;2022-12-20T04:00:43;32.27;;;1.43;;
11767;SDS011;5941;57.652;12.514;2022-12-20T04:03:09;15.50;;;1.57;;
11767;SDS011;5941;57.652;12.514;2022-12-20T04:05:35;1.80;;;0.80;;
11767;SDS011;5941;57.652;12.514;2022-12-20T04:08:01;19.23;;;1.43;;
11767;SDS011;5941;57.652;12.514;2022-12-20T04:10:27;5.07;;;0.90;;
11767;SDS011;5941;57.652;12.514;2022-12-20T04:12:53;0.70;;;0.70;;
11767;SDS011;5941;57.652;12.514;2022-12-20T04:15:19;10.70;;;1.10;;
11767;SDS011;5941;57.652;12.514;2022-12-20T04:17:45;0.93;;;0.80;;
11767;SDS011;5941;57.652;12.514;2022-12-20T04:20:15;46.27;;;2.57;;
11767;SDS011;5941;57.652;12.514;2022-12-20T04:22:45;2.13;;;1.00;;
11767;SDS011;5941;57.652;12.514;2022-12-20T04:25:11;44.63;;;1.83;;
11767;SDS011;5941;57.652;12.514;2022-12-20T04:27:37;0.80;;;0.80;;
11767;SDS011;5941;57.652;12.514;2022-12-20T04:30:03;93.63;;;3.67;;
11767;SDS011;5941;57.652;12.514;2022-12-20T04:32:29;0.80;;;0.80;;
11767;SDS011;5941;57.652;12.514;2022-12-20T04:34:55;32.10;;;1.97;;
11767;SDS011;5941;57.652;12.514;2022-12-20T04:37:21;61.53;;;2.40;;
11767;SDS011;5941;57.652;12.514;2022-12-20T04:39:47;75.57;;;2.90;;
11767;SDS011;5941;57.652;12.514;2022-12-20T04:42:13;13.23;;;1.60;;
11767;SDS011;5941;57.652;12.514;2022-12-20T04:44:39;4.90;;;1.50;;
11767;SDS011;5941;57.652;12.514;2022-12-20T04:47:05;66.53;;;2.83;;
11767;SDS011;5941;57.652;12.514;2022-12-20T04:49:32;5.20;;;1.20;;
11767;SDS011;5941;57.652;12.514;2022-12-20T04:51:58;2.97;;;0.90;;
11767;SDS011;5941;57.652;12.514;2022-12-20T04:54:44;56.30;;;2.57;;
11767;SDS011;5941;57.652;12.514;2022-12-20T04:57:10;7.40;;;1.10;;
11767;SDS011;5941;57.652;12.514;2022-12-20T04:59:36;23.57;;;1.63;;
11767;SDS011;5941;57.652;12.514;2022-12-20T05:02:02;15.90;;;1.20;;
11767;SDS011;5941;57.652;12.514;2022-12-20T05:04:28;0.97;;;0.80;;
11767;SDS011;5941;57.652;12.514;2022-12-20T05:06:54;1.30;;;1.20;;
11767;SDS011;5941;57.652;12.514;2022-12-20T05:09:20;1.17;;;1.07;;
11767;SDS011;5941;57.652;12.514;2022-12-20T05:11:46;2.40;;;1.00;;
11767;SDS011;5941;57.652;12.514;2022-12-20T05:14:12;0.90;;;0.90;;
11767;SDS011;5941;57.652;12.514;2022-12-20T05:16:38;1.20;;;1.10;;
11767;SDS011;5941;57.652;12.514;2022-12-20T05:19:04;18.43;;;1.73;;
11767;SDS011;5941;57.652;12.514;2022-12-20T05:21:30;1.37;;;1.13;;
11767;SDS011;5941;57.652;12.514;2022-12-20T05:24:14;1.20;;;1.10;;
11767;SDS011;5941;57.652;12.514;2022-12-20T05:26:59;5.30;;;1.10;;
11767;SDS011;5941;57.652;12.514;2022-12-20T05:29:25;1.17;;;1.07;;
11767;SDS011;5941;57.652;12.514;2022-12-20T05:31:51;31.83;;;2.07;;
11767;SDS011;5941;57.652;12.514;2022-12-20T05:34:17;1.20;;;1.10;;
11767;SDS011;5941;57.652;12.514;2022-12-20T05:36:43;1.33;;;1.20;;
11767;SDS011;5941;57.652;12.514;2022-12-20T05:39:09;1.47;;;1.33;;
11767;SDS011;5941;57.652;12.514;2022-12-20T05:41:38;2.13;;;1.20;;
11767;SDS011;5941;57.652;12.514;2022-12-20T05:44:05;1.70;;;1.17;;
11767;SDS011;5941;57.652;12.514;2022-12-20T05:46:31;1.90;;;1.63;;
11767;SDS011;5941;57.652;12.514;2022-12-20T05:48:57;12.30;;;2.23;;
11767;SDS011;5941;57.652;12.514;2022-12-20T05:51:23;3.17;;;2.10;;
11767;SDS011;5941;57.652;12.514;2022-12-20T05:53:49;27.80;;;2.60;;
11767;SDS011;5941;57.652;12.514;2022-12-20T05:56:15;3.57;;;2.13;;
11767;SDS011;5941;57.652;12.514;2022-12-20T05:58:41;3.47;;;2.43;;
11767;SDS011;5941;57.652;12.514;2022-12-20T06:01:07;3.43;;;2.57;;
11767;SDS011;5941;57.652;12.514;2022-12-20T06:03:34;3.10;;;2.20;;
11767;SDS011;5941;57.652;12.514;2022-12-20T06:06:00;7.60;;;2.93;;
11767;SDS011;5941;57.652;12.514;2022-12-20T06:08:26;9.10;;;3.63;;
11767;SDS011;5941;57.652;12.514;2022-12-20T06:10:52;15.07;;;4.03;;
11767;SDS011;5941;57.652;12.514;2022-12-20T06:13:19;13.73;;;4.17;;
11767;SDS011;5941;57.652;12.514;2022-12-20T06:15:45;8.93;;;3.50;;
11767;SDS011;5941;57.652;12.514;2022-12-20T06:18:11;47.70;;;4.87;;
11767;SDS011;5941;57.652;12.514;2022-12-20T06:20:37;6.13;;;4.13;;
11767;SDS011;5941;57.652;12.514;2022-12-20T06:23:03;43.57;;;5.17;;
11767;SDS011;5941;57.652;12.514;2022-12-20T06:25:29;60.47;;;5.97;;
11767;SDS011;5941;57.652;12.514;2022-12-20T06:27:56;45.47;;;5.30;;
11767;SDS011;5941;57.652;12.514;2022-12-20T06:30:22;295.93;;;11.73;;
11767;SDS011;5941;57.652;12.514;2022-12-20T06:32:48;360.13;;;13.47;;
11767;SDS011;5941;57.652;12.514;2022-12-20T06:35:14;71.53;;;5.30;;
11767;SDS011;5941;57.652;12.514;2022-12-20T06:37:40;9.07;;;4.30;;
11767;SDS011;5941;57.652;12.514;2022-12-20T06:40:07;265.17;;;12.93;;
11767;SDS011;5941;57.652;12.514;2022-12-20T06:42:33;13.77;;;4.83;;
11767;SDS011;5941;57.652;12.514;2022-12-20T06:44:59;22.63;;;6.50;;
11767;SDS011;5941;57.652;12.514;2022-12-20T06:47:25;19.67;;;6.67;;
11767;SDS011;5941;57.652;12.514;2022-12-20T06:49:51;37.43;;;7.30;;
11767;SDS011;5941;57.652;12.514;2022-12-20T06:52:17;26.50;;;6.20;;
11767;SDS011;5941;57.652;12.514;2022-12-20T06:54:43;172.57;;;9.80;;
11767;SDS011;5941;57.652;12.514;2022-12-20T06:57:09;82.50;;;7.43;;
11767;SDS011;5941;57.652;12.514;2022-12-20T06:59:35;148.13;;;10.07;;
11767;SDS011;5941;57.652;12.514;2022-12-20T07:02:01;49.67;;;5.90;;
11767;SDS011;5941;57.652;12.514;2022-12-20T07:04:27;291.00;;;15.17;;
11767;SDS011;5941;57.652;12.514;2022-12-20T07:06:53;30.47;;;8.00;;
11767;SDS011;5941;57.652;12.514;2022-12-20T07:09:19;98.03;;;9.63;;
11767;SDS011;5941;57.652;12.514;2022-12-20T07:11:45;241.00;;;14.30;;
11767;SDS011;5941;57.652;12.514;2022-12-20T07:14:11;80.33;;;9.00;;
11767;SDS011;5941;57.652;12.514;2022-12-20T07:16:37;37.30;;;8.27;;
11767;SDS011;5941;57.652;12.514;2022-12-20T07:19:05;172.80;;;9.83;;
11767;SDS011;5941;57.652;12.514;2022-12-20T07:21:31;14.33;;;7.27;;
11767;SDS011;5941;57.652;12.514;2022-12-20T07:23:57;150.17;;;9.20;;
11767;SDS011;5941;57.652;12.514;2022-12-20T07:26:23;311.93;;;13.23;;
11767;SDS011;5941;57.652;12.514;2022-12-20T07:28:49;447.83;;;16.97;;
11767;SDS011;5941;57.652;12.514;2022-12-20T07:31:15;213.07;;;11.53;;
11767;SDS011;5941;57.652;12.514;2022-12-20T07:33:41;23.70;;;9.20;;
11767;SDS011;5941;57.652;12.514;2022-12-20T07:36:09;80.27;;;10.73;;
11767;SDS011;5941;57.652;12.514;2022-12-20T07:38:35;23.60;;;9.30;;
11767;SDS011;5941;57.652;12.514;2022-12-20T07:41:08;52.17;;;9.13;;
11767;SDS011;5941;57.652;12.514;2022-12-20T07:43:34;26.23;;;9.57;;
11767;SDS011;5941;57.652;12.514;2022-12-20T07:46:01;142.17;;;12.43;;
11767;SDS011;5941;57.652;12.514;2022-12-20T07:48:27;75.83;;;9.17;;
11767;SDS011;5941;57.652;12.514;2022-12-20T07:50:55;105.43;;;10.87;;
11767;SDS011;5941;57.652;12.514;2022-12-20T07:53:23;19.60;;;8.20;;
11767;SDS011;5941;57.652;12.514;2022-12-20T07:55:51;367.07;;;16.87;;
11767;SDS011;5941;57.652;12.514;2022-12-20T07:58:17;444.43;;;17.70;;
11767;SDS011;5941;57.652;12.514;2022-12-20T08:00:44;19.87;;;6.93;;
11767;SDS011;5941;57.652;12.514;2022-12-20T08:03:20;44.03;;;7.50;;
11767;SDS011;5941;57.652;12.514;2022-12-20T08:05:48;59.07;;;7.70;;
11767;SDS011;5941;57.652;12.514;2022-12-20T08:08:15;253.80;;;10.57;;
11767;SDS011;5941;57.652;12.514;2022-12-20T08:10:41;47.87;;;6.67;;
11767;SDS011;5941;57.652;12.514;2022-12-20T08:13:07;32.00;;;8.07;;
11767;SDS011;5941;57.652;12.514;2022-12-20T08:15:34;13.50;;;6.53;;
11767;SDS011;5941;57.652;12.514;2022-12-20T08:18:00;35.20;;;8.43;;
11767;SDS011;5941;57.652;12.514;2022-12-20T08:20:26;311.47;;;14.20;;
11767;SDS011;5941;57.652;12.514;2022-12-20T08:22:52;181.10;;;11.27;;
11767;SDS011;5941;57.652;12.514;2022-12-20T08:25:19;15.73;;;8.17;;
11767;SDS011;5941;57.652;12.514;2022-12-20T08:27:45;75.20;;;7.87;;
11767;SDS011;5941;57.652;12.514;2022-12-20T08:30:11;12.17;;;6.60;;
11767;SDS011;5941;57.652;12.514;2022-12-20T08:32:37;17.07;;;7.73;;
11767;SDS011;5941;57.652;12.514;2022-12-20T08:35:04;19.23;;;8.57;;
11767;SDS011;5941;57.652;12.514;2022-12-20T08:37:30;22.93;;;10.43;;
11767;SDS011;5941;57.652;12.514;2022-12-20T08:39:56;18.60;;;8.87;;
11767;SDS011;5941;57.652;12.514;2022-12-20T08:42:22;17.97;;;8.90;;
11767;SDS011;5941;57.652;12.514;2022-12-20T08:44:48;119.63;;;10.80;;
11767;SDS011;5941;57.652;12.514;2022-12-20T08:47:14;19.57;;;8.77;;
11767;SDS011;5941;57.652;12.514;2022-12-20T08:49:40;17.93;;;8.60;;
11767;SDS011;5941;57.652;12.514;2022-12-20T08:52:05;19.33;;;9.57;;
11767;SDS011;5941;57.652;12.514;2022-12-20T08:54:31;144.00;;;11.43;;
11767;SDS011;5941;57.652;12.514;2022-12-20T08:56:57;39.73;;;8.77;;
11767;SDS011;5941;57.652;12.514;2022-12-20T08:59:23;13.40;;;7.17;;
11767;SDS011;5941;57.652;12.514;2022-12-20T09:01:50;17.07;;;8.90;;
11767;SDS011;5941;57.652;12.514;2022-12-20T09:04:18;51.93;;;8.67;;
11767;SDS011;5941;57.652;12.514;2022-12-20T09:06:44;28.50;;;7.20;;
11767;SDS011;5941;57.652;12.514;2022-12-20T09:09:10;11.50;;;6.03;;
11767;SDS011;5941;57.652;12.514;2022-12-20T09:11:36;45.50;;;6.80;;
11767;SDS011;5941;57.652;12.514;2022-12-20T09:14:02;9.17;;;5.90;;
11767;SDS011;5941;57.652;12.514;2022-12-20T09:16:29;7.60;;;5.27;;
11767;SDS011;5941;57.652;12.514;2022-12-20T09:18:56;7.33;;;5.20;;
11767;SDS011;5941;57.652;12.514;2022-12-20T09:21:23;7.70;;;5.17;;
11767;SDS011;5941;57.652;12.514;2022-12-20T09:23:49;7.47;;;4.77;;
11767;SDS011;5941;57.652;12.514;2022-12-20T09:26:16;9.67;;;4.83;;
11767;SDS011;5941;57.652;12.514;2022-12-20T09:28:43;9.00;;;4.47;;
11767;SDS011;5941;57.652;12.514;2022-12-20T09:31:10;11.13;;;5.00;;
11767;SDS011;5941;57.652;12.514;2022-12-20T09:33:36;7.07;;;4.73;;
11767;SDS011;5941;57.652;12.514;2022-12-20T09:36:02;7.37;;;4.63;;
11767;SDS011;5941;57.652;12.514;2022-12-20T09:38:29;5.33;;;3.73;;
11767;SDS011;5941;57.652;12.514;2022-12-20T09:40:56;7.13;;;4.27;;
11767;SDS011;5941;57.652;12.514;2022-12-20T09:43:23;7.80;;;4.77;;
11767;SDS011;5941;57.652;12.514;2022-12-20T09:45:53;5.23;;;3.93;;
11767;SDS011;5941;57.652;12.514;2022-12-20T09:48:28;6.93;;;4.70;;
11767;SDS011;5941;57.652;12.514;2022-12-20T09:51:06;6.37;;;4.67;;
11767;SDS011;5941;57.652;12.514;2022-12-20T09:53:59;6.40;;;4.30;;
11767;SDS011;5941;57.652;12.514;2022-12-20T09:56:32;5.20;;;4.07;;
11767;SDS011;5941;57.652;12.514;2022-12-20T10:01:27;6.73;;;4.30;;
11767;SDS011;5941;57.652;12.514;2022-12-20T10:03:55;10.20;;;5.10;;
11767;SDS011;5941;57.652;12.514;2022-12-20T10:08:54;6.93;;;4.43;;
11767;SDS011;5941;57.652;12.514;2022-12-20T10:14:07;5.13;;;3.80;;
11767;SDS011;5941;57.652;12.514;2022-12-20T10:16:46;4.27;;;3.60;;
11767;SDS011;5941;57.652;12.514;2022-12-20T10:22:08;6.17;;;3.80;;
11767;SDS011;5941;57.652;12.514;2022-12-20T10:24:36;5.03;;;3.50;;
11767;SDS011;5941;57.652;12.514;2022-12-20T10:27:16;3.90;;;3.23;;
11767;SDS011;5941;57.652;12.514;2022-12-20T10:29:42;3.43;;;2.97;;
11767;SDS011;5941;57.652;12.514;2022-12-20T10:32:16;3.77;;;3.30;;
11767;SDS011;5941;57.652;12.514;2022-12-20T10:35:08;4.50;;;3.40;;
11767;SDS011;5941;57.652;12.514;2022-12-20T10:37:34;3.23;;;2.80;;
11767;SDS011;5941;57.652;12.514;2022-12-20T10:40:00;3.20;;;2.70;;
11767;SDS011;5941;57.652;12.514;2022-12-20T10:44:58;2.67;;;2.37;;
11767;SDS011;5941;57.652;12.514;2022-12-20T10:50:01;2.53;;;2.33;;
11767;SDS011;5941;57.652;12.514;2022-12-20T10:52:32;2.63;;;2.30;;
11767;SDS011;5941;57.652;12.514;2022-12-20T10:54:58;2.27;;;2.07;;
11767;SDS011;5941;57.652;12.514;2022-12-20T10:57:25;2.53;;;2.07;;
11767;SDS011;5941;57.652;12.514;2022-12-20T10:59:53;2.77;;;2.27;;
11767;SDS011;5941;57.652;12.514;2022-12-20T11:02:24;2.10;;;1.90;;
11767;SDS011;5941;57.652;12.514;2022-12-20T11:05:00;2.33;;;2.03;;
11767;SDS011;5941;57.652;12.514;2022-12-20T11:07:27;2.07;;;1.87;;
11767;SDS011;5941;57.652;12.514;2022-12-20T11:09:55;2.60;;;2.30;;
11767;SDS011;5941;57.652;12.514;2022-12-20T11:12:21;2.10;;;1.90;;
11767;SDS011;5941;57.652;12.514;2022-12-20T11:14:48;1.87;;;1.70;;
11767;SDS011;5941;57.652;12.514;2022-12-20T11:20:04;1.70;;;1.60;;
11767;SDS011;5941;57.652;12.514;2022-12-20T11:22:39;1.50;;;1.30;;
11767;SDS011;5941;57.652;12.514;2022-12-20T11:27:42;1.37;;;1.27;;
11767;SDS011;5941;57.652;12.514;2022-12-20T11:32:44;1.20;;;1.10;;
11767;SDS011;5941;57.652;12.514;2022-12-20T11:35:17;0.90;;;0.90;;
11767;SDS011;5941;57.652;12.514;2022-12-20T11:40:30;1.00;;;0.90;;
11767;SDS011;5941;57.652;12.514;2022-12-20T11:45:30;0.97;;;0.87;;
11767;SDS011;5941;57.652;12.514;2022-12-20T11:48:01;0.90;;;0.90;;
11767;SDS011;5941;57.652;12.514;2022-12-20T11:50:40;1.03;;;0.93;;
11767;SDS011;5941;57.652;12.514;2022-12-20T11:53:53;0.77;;;0.77;;
11767;SDS011;5941;57.652;12.514;2022-12-20T11:55:53;0.70;;;0.70;;
11767;SDS011;5941;57.652;12.514;2022-12-20T11:58:24;0.67;;;0.67;;
11767;SDS011;5941;57.652;12.514;2022-12-20T12:01:06;0.70;;;0.70;;
11767;SDS011;5941;57.652;12.514;2022-12-20T12:03:34;0.70;;;0.70;;
11767;SDS011;5941;57.652;12.514;2022-12-20T12:06:02;0.90;;;0.90;;
11767;SDS011;5941;57.652;12.514;2022-12-20T12:11:23;1.10;;;1.00;;
11767;SDS011;5941;57.652;12.514;2022-12-20T12:13:51;0.90;;;0.90;;
11767;SDS011;5941;57.652;12.514;2022-12-20T12:16:27;1.20;;;1.10;;
11767;SDS011;5941;57.652;12.514;2022-12-20T12:18:56;1.20;;;1.10;;
11767;SDS011;5941;57.652;12.514;2022-12-20T12:21:24;0.90;;;0.90;;
11767;SDS011;5941;57.652;12.514;2022-12-20T12:26:35;1.57;;;1.40;;
11767;SDS011;5941;57.652;12.514;2022-12-20T12:29:05;1.47;;;1.37;;
11767;SDS011;5941;57.652;12.514;2022-12-20T12:31:49;1.60;;;1.50;;
11767;SDS011;5941;57.652;12.514;2022-12-20T12:34:26;1.10;;;1.10;;
11767;SDS011;5941;57.652;12.514;2022-12-20T12:42:00;1.87;;;1.77;;
11767;SDS011;5941;57.652;12.514;2022-12-20T12:44:33;2.53;;;1.90;;
11767;SDS011;5941;57.652;12.514;2022-12-20T12:47:03;2.07;;;1.80;;
11767;SDS011;5941;57.652;12.514;2022-12-20T12:49:30;2.27;;;1.70;;
11767;SDS011;5941;57.652;12.514;2022-12-20T12:51:58;2.70;;;2.10;;
11767;SDS011;5941;57.652;12.514;2022-12-20T12:54:29;2.10;;;1.90;;
11767;SDS011;5941;57.652;12.514;2022-12-20T12:57:00;2.20;;;1.90;;
11767;SDS011;5941;57.652;12.514;2022-12-20T13:04:50;1.93;;;1.60;;
11767;SDS011;5941;57.652;12.514;2022-12-20T13:07:59;1.60;;;1.50;;
11767;SDS011;5941;57.652;12.514;2022-12-20T13:12:47;1.50;;;1.40;;
11767;SDS011;5941;57.652;12.514;2022-12-20T13:17:58;1.47;;;1.33;;
11767;SDS011;5941;57.652;12.514;2022-12-20T13:20:29;1.47;;;1.07;;
11767;SDS011;5941;57.652;12.514;2022-12-20T13:23:28;1.30;;;1.20;;
11767;SDS011;5941;57.652;12.514;2022-12-20T13:25:48;1.23;;;1.13;;
11767;SDS011;5941;57.652;12.514;2022-12-20T13:33:20;1.00;;;1.00;;
11767;SDS011;5941;57.652;12.514;2022-12-20T13:35:55;1.00;;;0.90;;
11767;SDS011;5941;57.652;12.514;2022-12-20T13:43:48;0.80;;;0.80;;
11767;SDS011;5941;57.652;12.514;2022-12-20T13:46:20;1.40;;;0.97;;
11767;SDS011;5941;57.652;12.514;2022-12-20T13:48:58;0.93;;;0.80;;
11767;SDS011;5941;57.652;12.514;2022-12-20T13:51:27;1.17;;;0.90;;
11767;SDS011;5941;57.652;12.514;2022-12-20T13:53:54;0.67;;;0.67;;
11767;SDS011;5941;57.652;12.514;2022-12-20T13:56:31;1.60;;;1.50;;
11767;SDS011;5941;57.652;12.514;2022-12-20T13:59:06;0.80;;;0.80;;
11767;SDS011;5941;57.652;12.514;2022-12-20T14:01:32;0.67;;;0.67;;
11767;SDS011;5941;57.652;12.514;2022-12-20T14:04:02;0.70;;;0.70;;
11767;SDS011;5941;57.652;12.514;2022-12-20T14:06:31;1.90;;;1.70;;
11767;SDS011;5941;57.652;12.514;2022-12-20T14:08:57;8.07;;;6.73;;
11767;SDS011;5941;57.652;12.514;2022-12-20T14:11:23;1.83;;;1.43;;
11767;SDS011;5941;57.652;12.514;2022-12-20T14:14:02;0.87;;;0.87;;
11767;SDS011;5941;57.652;12.514;2022-12-20T14:16:30;0.73;;;0.73;;
11767;SDS011;5941;57.652;12.514;2022-12-20T14:21:22;0.60;;;0.60;;
11767;SDS011;5941;57.652;12.514;2022-12-20T14:23:49;2.97;;;0.80;;
11767;SDS011;5941;57.652;12.514;2022-12-20T14:26:23;6.23;;;5.07;;
11767;SDS011;5941;57.652;12.514;2022-12-20T14:28:50;1.53;;;1.43;;
11767;SDS011;5941;57.652;12.514;2022-12-20T14:31:34;0.80;;;0.80;;
11767;SDS011;5941;57.652;12.514;2022-12-20T14:36:47;1.00;;;0.90;;
11767;SDS011;5941;57.652;12.514;2022-12-20T14:39:30;0.83;;;0.83;;
11767;SDS011;5941;57.652;12.514;2022-12-20T14:42:01;0.60;;;0.60;;
11767;SDS011;5941;57.652;12.514;2022-12-20T14:44:30;1.20;;;1.10;;
11767;SDS011;5941;57.652;12.514;2022-12-20T14:46:57;1.13;;;1.03;;
11767;SDS011;5941;57.652;12.514;2022-12-20T14:49:24;1.73;;;1.13;;
11767;SDS011;5941;57.652;12.514;2022-12-20T14:52:03;0.90;;;0.90;;
11767;SDS011;5941;57.652;12.514;2022-12-20T14:54:30;0.90;;;0.90;;
11767;SDS011;5941;57.652;12.514;2022-12-20T14:56:57;0.90;;;0.90;;
11767;SDS011;5941;57.652;12.514;2022-12-20T14:59:27;1.10;;;1.10;;
11767;SDS011;5941;57.652;12.514;2022-12-20T15:01:55;1.70;;;1.20;;
11767;SDS011;5941;57.652;12.514;2022-12-20T15:04:32;1.03;;;1.03;;
11767;SDS011;5941;57.652;12.514;2022-12-20T15:06:59;1.53;;;1.27;;
11767;SDS011;5941;57.652;12.514;2022-12-20T15:09:25;1.40;;;1.30;;
11767;SDS011;5941;57.652;12.514;2022-12-20T15:11:51;1.00;;;1.00;;
11767;SDS011;5941;57.652;12.514;2022-12-20T15:14:30;1.33;;;1.23;;
11767;SDS011;5941;57.652;12.514;2022-12-20T15:16:57;1.20;;;1.10;;
11767;SDS011;5941;57.652;12.514;2022-12-20T15:19:24;1.33;;;1.23;;
11767;SDS011;5941;57.652;12.514;2022-12-20T15:21:50;1.33;;;1.23;;
11767;SDS011;5941;57.652;12.514;2022-12-20T15:24:17;6.60;;;1.57;;
11767;SDS011;5941;57.652;12.514;2022-12-20T15:26:45;1.30;;;1.20;;
11767;SDS011;5941;57.652;12.514;2022-12-20T15:29:15;1.70;;;1.60;;
11767;SDS011;5941;57.652;12.514;2022-12-20T15:31:41;1.60;;;1.37;;
11767;SDS011;5941;57.652;12.514;2022-12-20T15:34:31;1.60;;;1.50;;
11767;SDS011;5941;57.652;12.514;2022-12-20T15:36:55;1.57;;;1.43;;
11767;SDS011;5941;57.652;12.514;2022-12-20T15:39:23;1.50;;;1.40;;
11767;SDS011;5941;57.652;12.514;2022-12-20T15:41:49;1.83;;;1.50;;
11767;SDS011;5941;57.652;12.514;2022-12-20T15:44:25;1.50;;;1.40;;
11767;SDS011;5941;57.652;12.514;2022-12-20T15:46:51;1.43;;;1.27;;
11767;SDS011;5941;57.652;12.514;2022-12-20T15:49:18;1.50;;;1.40;;
11767;SDS011;5941;57.652;12.514;2022-12-20T15:51:45;1.50;;;1.40;;
11767;SDS011;5941;57.652;12.514;2022-12-20T15:54:31;1.60;;;1.50;;
11767;SDS011;5941;57.652;12.514;2022-12-20T15:57:02;3.20;;;1.80;;
11767;SDS011;5941;57.652;12.514;2022-12-20T15:59:28;1.90;;;1.80;;
11767;SDS011;5941;57.652;12.514;2022-12-20T16:01:54;2.17;;;1.97;;
11767;SDS011;5941;57.652;12.514;2022-12-20T16:04:20;2.83;;;2.60;;
11767;SDS011;5941;57.652;12.514;2022-12-20T16:06:47;3.10;;;2.80;;
11767;SDS011;5941;57.652;12.514;2022-12-20T16:09:14;6.27;;;3.00;;
11767;SDS011;5941;57.652;12.514;2022-12-20T16:11:40;3.40;;;3.00;;
11767;SDS011;5941;57.652;12.514;2022-12-20T16:14:08;4.07;;;3.40;;
11767;SDS011;5941;57.652;12.514;2022-12-20T16:16:35;4.50;;;3.67;;